Time;durP1;ratioP1;P1;durP2;ratioP2;P2;SDS_P1;SDS_P2;PMS_P1;PMS_P2;Temp;Humidity;BMP_temperature;BMP_pressure;BME280_temperature;BME280_humidity;BME280_pressure;Samples;Min_cycle;Max_cycle;Signal;HPM_P1;HPM_P2
2023/07/09 00:00:13;;;;;;;8.23;4.82;;;;;;;19.28;70.93;95253.72;5053175;28;20167;-80
2023/07/09 00:02:39;;;;;;;7.80;4.22;;;;;;;19.08;71.17;95235.66;5053374;28;20624;-80
2023/07/09 00:05:05;;;;;;;6.40;4.13;;;;;;;19.02;71.74;95239.34;5052664;28;20187;-80
2023/07/09 00:07:32;;;;;;;6.72;4.72;;;;;;;19.03;71.89;95256.94;5053141;28;20185;-80
2023/07/09 00:09:58;;;;;;;9.10;4.97;;;;;;;18.96;72.70;95251.81;5053160;28;20175;-80
2023/07/09 00:12:25;;;;;;;9.68;4.38;;;;;;;18.93;73.10;95244.34;5032242;28;20160;-80
2023/07/09 00:14:51;;;;;;;8.68;4.97;;;;;;;18.89;73.71;95247.75;5048676;28;20163;-80
2023/07/09 00:17:33;;;;;;;9.98;3.92;;;;;;;18.69;73.99;95233.16;5052837;28;20233;-80
2023/07/09 00:19:58;;;;;;;8.35;4.20;;;;;;;18.61;74.16;95227.47;5053074;28;20201;-80
2023/07/09 00:22:26;;;;;;;9.90;3.20;;;;;;;18.64;73.69;95240.31;5052888;28;20286;-80
2023/07/09 00:24:56;;;;;;;7.97;3.03;;;;;;;18.68;73.27;95252.09;5052769;28;20250;-80
2023/07/09 00:27:25;;;;;;;7.47;3.22;;;;;;;18.59;73.19;95237.59;5052793;28;20174;-80
2023/07/09 00:29:52;;;;;;;8.40;3.83;;;;;;;18.39;72.75;95206.97;5044573;28;20304;-79
2023/07/09 00:32:24;;;;;;;9.48;3.80;;;;;;;18.65;72.53;95252.59;5052578;28;20203;-79
2023/07/09 00:34:51;;;;;;;7.03;3.15;;;;;;;18.58;72.51;95233.31;5052756;28;20274;-80
2023/07/09 00:37:19;;;;;;;6.63;3.22;;;;;;;18.66;72.44;95246.19;5052399;28;20752;-80
2023/07/09 00:39:45;;;;;;;3.97;2.65;;;;;;;18.68;71.87;95241.44;5052466;28;20171;-80
2023/07/09 00:42:17;;;;;;;3.88;2.90;;;;;;;18.62;71.85;95224.56;5052458;28;20631;-80
2023/07/09 00:44:54;;;;;;;5.53;3.00;;;;;;;18.63;70.93;95241.34;5052487;28;20197;-80
2023/07/09 00:47:41;;;;;;;5.88;3.13;;;;;;;18.41;71.79;95198.72;5052818;28;20182;-80
2023/07/09 00:50:27;;;;;;;7.20;3.45;;;;;;;18.68;71.86;95230.75;5036102;28;20649;-80
2023/07/09 00:53:05;;;;;;;5.90;2.75;;;;;;;18.65;70.92;95228.59;5051960;28;20807;-80
2023/07/09 00:55:37;;;;;;;5.53;3.28;;;;;;;18.61;71.31;95228.28;5034529;28;20171;-80
2023/07/09 00:58:06;;;;;;;6.38;2.72;;;;;;;18.64;72.08;95210.97;5052206;28;20177;-80
2023/07/09 01:00:48;;;;;;;4.78;2.90;;;;;;;18.79;71.58;95224.44;5052166;28;20171;-80
2023/07/09 01:03:21;;;;;;;3.58;2.90;;;;;;;18.83;71.41;95229.03;5052164;28;20584;-80
2023/07/09 01:05:55;;;;;;;11.63;2.80;;;;;;;18.87;70.64;95223.97;5052269;28;20179;-80
2023/07/09 01:08:21;;;;;;;6.30;3.17;;;;;;;18.88;70.60;95227.47;5034364;28;20183;-81
2023/07/09 01:10:46;;;;;;;3.53;2.67;;;;;;;18.78;70.89;95212.97;5052066;28;20229;-81
2023/07/09 01:13:12;;;;;;;4.43;2.92;;;;;;;18.89;70.93;95231.75;5052040;28;20249;-81
2023/07/09 01:15:38;;;;;;;15.65;8.63;;;;;;;18.70;71.42;95194.75;5051545;28;20558;-80
2023/07/09 01:18:04;;;;;;;7.00;3.33;;;;;;;18.73;71.86;95202.25;5051973;28;20202;-81
2023/07/09 01:20:30;;;;;;;6.68;3.45;;;;;;;18.79;72.67;95216.44;5034057;28;20262;-81
2023/07/09 01:22:56;;;;;;;7.38;3.50;;;;;;;18.76;72.39;95212.44;5051749;28;20191;-81
2023/07/09 01:25:23;;;;;;;5.80;3.35;;;;;;;18.76;72.00;95211.63;5052361;28;20175;-81
2023/07/09 01:27:49;;;;;;;3.45;2.88;;;;;;;18.75;72.63;95220.69;5052224;28;20171;-80
2023/07/09 01:30:24;;;;;;;5.65;3.58;;;;;;;18.60;72.51;95196.50;5051794;28;20189;-80
2023/07/09 01:32:51;;;;;;;4.28;2.90;;;;;;;18.68;73.27;95210.19;5051602;28;20569;-80
2023/07/09 01:35:19;;;;;;;6.30;3.50;;;;;;;18.46;73.96;95188.91;5051899;28;20237;-80
2023/07/09 01:37:46;;;;;;;3.97;3.05;;;;;;;18.60;73.49;95201.84;5051576;28;20253;-80
2023/07/09 01:40:14;;;;;;;5.75;3.10;;;;;;;18.42;74.22;95190.44;5051384;28;20164;-80
2023/07/09 01:42:40;;;;;;;5.25;3.22;;;;;;;18.27;73.90;95211.63;5045092;28;20430;-80
2023/07/09 01:45:07;;;;;;;5.75;3.33;;;;;;;18.07;74.67;95209.50;5050460;28;20416;-80
2023/07/09 01:47:32;;;;;;;3.53;3.15;;;;;;;18.07;75.67;95212.19;5051691;28;20171;-80
2023/07/09 01:49:59;;;;;;;8.48;3.40;;;;;;;18.09;75.40;95198.63;5051649;28;20171;-80
2023/07/09 01:52:27;;;;;;;3.95;2.97;;;;;;;18.09;74.98;95194.09;5047194;28;20668;-80
2023/07/09 01:54:53;;;;;;;8.15;2.80;;;;;;;18.11;74.77;95209.84;5051541;28;20186;-80
2023/07/09 01:57:22;;;;;;;6.35;2.80;;;;;;;18.18;74.61;95223.78;5051597;28;20174;-80
2023/07/09 01:59:52;;;;;;;8.07;3.00;;;;;;;18.12;74.95;95222.09;5033862;28;20340;-80
2023/07/09 02:02:18;;;;;;;5.68;3.40;;;;;;;18.15;74.98;95229.63;5051433;28;20748;-80
2023/07/09 02:04:55;;;;;;;3.70;2.90;;;;;;;18.11;74.58;95231.16;5051936;28;20167;-80
2023/07/09 02:07:23;;;;;;;7.47;3.50;;;;;;;18.07;74.45;95227.38;5046544;28;20175;-80
2023/07/09 02:09:48;;;;;;;8.85;3.70;;;;;;;18.05;75.24;95232.16;5048335;28;20209;-80
2023/07/09 02:12:15;;;;;;;6.03;3.42;;;;;;;18.04;75.17;95228.69;5051635;28;20198;-80
2023/07/09 02:14:42;;;;;;;4.22;3.20;;;;;;;17.89;74.86;95209.03;5046426;28;20171;-80
2023/07/09 02:17:08;;;;;;;7.63;3.15;;;;;;;17.93;74.87;95226.94;5033545;28;20206;-80
2023/07/09 02:19:34;;;;;;;13.90;2.90;;;;;;;17.86;75.32;95221.00;5045846;28;20186;-80
2023/07/09 02:21:59;;;;;;;6.68;3.17;;;;;;;17.76;76.37;95196.06;5043464;28;20196;-80
2023/07/09 02:24:26;;;;;;;6.75;3.05;;;;;;;17.87;76.16;95227.13;5038245;28;20222;-80
2023/07/09 02:26:52;;;;;;;5.80;3.28;;;;;;;17.91;76.35;95231.69;5048528;28;20179;-80
2023/07/09 02:29:18;;;;;;;4.95;2.90;;;;;;;17.73;75.37;95215.22;5046808;28;20172;-80
2023/07/09 02:31:45;;;;;;;5.07;3.53;;;;;;;17.68;75.52;95216.75;5048157;28;20174;-80
2023/07/09 02:34:10;;;;;;;9.88;3.40;;;;;;;17.83;75.66;95236.66;5055045;28;20179;-80
2023/07/09 02:36:36;;;;;;;4.60;2.88;;;;;;;17.70;74.93;95235.16;5054885;28;20693;-80
2023/07/09 02:39:02;;;;;;;5.05;2.83;;;;;;;17.73;75.36;95242.63;5053198;28;20244;-80
2023/07/09 02:41:27;;;;;;;3.50;2.45;;;;;;;17.52;76.05;95217.56;5054844;28;20670;-80
2023/07/09 02:43:53;;;;;;;6.15;2.90;;;;;;;17.69;76.03;95245.00;5054867;28;20226;-80
2023/07/09 02:46:18;;;;;;;8.48;3.22;;;;;;;17.69;76.16;95250.31;5054888;28;20174;-80
2023/07/09 02:48:44;;;;;;;5.25;3.03;;;;;;;17.68;76.24;95266.53;5054898;28;20163;-80
2023/07/09 02:51:09;;;;;;;7.32;2.85;;;;;;;17.69;77.00;95262.84;5054838;28;20258;-80
2023/07/09 02:53:35;;;;;;;5.53;3.30;;;;;;;17.62;77.00;95264.88;5036946;28;20179;-80
2023/07/09 02:56:00;;;;;;;7.07;2.90;;;;;;;17.49;77.05;95250.00;5054434;28;20205;-80
2023/07/09 02:58:25;;;;;;;6.43;3.55;;;;;;;17.54;77.19;95257.25;5054592;28;20254;-80
2023/07/09 03:00:54;;;;;;;7.80;3.60;;;;;;;17.58;77.71;95264.50;5049800;28;20242;-80
2023/07/09 03:03:20;;;;;;;5.28;3.15;;;;;;;17.56;77.53;95273.78;5053672;28;20252;-80
2023/07/09 03:05:46;;;;;;;6.97;3.17;;;;;;;17.35;77.32;95249.53;5054414;28;20258;-80
2023/07/09 03:08:12;;;;;;;9.57;3.88;;;;;;;17.34;78.26;95255.91;5053437;28;20490;-80
2023/07/09 03:10:38;;;;;;;5.05;3.53;;;;;;;17.31;78.28;95252.91;5054234;28;20179;-80
2023/07/09 03:13:04;;;;;;;12.40;3.55;;;;;;;17.39;78.45;95257.00;5046393;28;20178;-80
2023/07/09 03:15:31;;;;;;;5.47;3.60;;;;;;;17.47;78.97;95272.59;5054542;28;20171;-80
2023/07/09 03:17:56;;;;;;;9.60;5.30;;;;;;;17.47;79.33;95277.94;5054367;28;20225;-80
2023/07/09 03:20:22;;;;;;;15.48;6.53;;;;;;;17.50;79.10;95274.75;5054175;28;20167;-80
2023/07/09 03:22:47;;;;;;;13.20;5.75;;;;;;;17.47;78.49;95273.38;5036148;28;20634;-80
2023/07/09 03:25:12;;;;;;;15.40;5.53;;;;;;;17.45;78.49;95278.16;5053806;28;20262;-80
2023/07/09 03:27:38;;;;;;;7.75;4.32;;;;;;;17.50;77.49;95285.41;5046857;28;20182;-80
2023/07/09 03:30:03;;;;;;;9.35;5.90;;;;;;;17.50;77.98;95278.22;5048448;28;20263;-79
2023/07/09 03:32:30;;;;;;;5.57;3.83;;;;;;;17.64;77.12;95284.06;5053872;28;20175;-80
2023/07/09 03:34:55;;;;;;;7.05;3.58;;;;;;;17.69;77.90;95287.59;5054208;28;20183;-79
2023/07/09 03:37:21;;;;;;;7.35;3.20;;;;;;;17.79;77.03;95283.47;5053866;28;20287;-80
2023/07/09 03:39:46;;;;;;;12.63;4.90;;;;;;;17.86;77.07;95284.09;5052816;28;20167;-80
2023/07/09 03:42:11;;;;;;;7.95;3.83;;;;;;;18.04;77.21;95283.81;5053571;28;21012;-80
2023/07/09 03:44:37;;;;;;;9.27;5.00;;;;;;;18.02;75.39;95278.75;5053692;28;20182;-79
2023/07/09 03:47:03;;;;;;;16.95;5.90;;;;;;;18.07;76.18;95262.03;5053883;28;20179;-80
2023/07/09 03:49:29;;;;;;;5.75;3.70;;;;;;;18.35;75.06;95287.66;5052371;28;20665;-80
2023/07/09 03:51:54;;;;;;;16.67;4.07;;;;;;;18.52;75.90;95290.25;5051925;28;20229;-80
2023/07/09 03:54:19;;;;;;;7.07;3.40;;;;;;;18.59;73.70;95294.41;5051458;28;20170;-80
2023/07/09 03:56:45;;;;;;;18.02;5.45;;;;;;;18.60;73.70;95279.19;5053121;28;20661;-80
2023/07/09 03:59:10;;;;;;;9.57;3.22;;;;;;;18.67;73.01;95271.81;5053184;28;20644;-81
2023/07/09 04:01:35;;;;;;;10.80;3.42;;;;;;;18.85;73.19;95279.47;5053031;28;20224;-81
2023/07/09 04:04:01;;;;;;;5.75;3.20;;;;;;;19.11;73.96;95289.31;5053017;28;20659;-81
2023/07/09 04:06:26;;;;;;;9.63;3.97;;;;;;;19.16;71.25;95301.91;5053188;28;20182;-81
2023/07/09 04:08:52;;;;;;;11.48;4.88;;;;;;;19.34;73.39;95292.72;5053145;28;20187;-81
2023/07/09 04:11:17;;;;;;;6.75;3.58;;;;;;;19.44;71.48;95292.81;5053005;28;20167;-81
2023/07/09 04:13:43;;;;;;;9.20;3.40;;;;;;;19.53;70.97;95286.78;5053105;28;20191;-81
2023/07/09 04:16:09;;;;;;;8.70;3.40;;;;;;;19.92;70.66;95307.88;5053065;28;20241;-81
2023/07/09 04:18:36;;;;;;;6.63;3.55;;;;;;;20.07;71.30;95301.81;5053068;28;20297;-81
2023/07/09 04:21:02;;;;;;;18.35;4.13;;;;;;;20.25;70.34;95288.81;5053017;28;20163;-81
2023/07/09 04:23:27;;;;;;;8.90;4.13;;;;;;;20.35;71.36;95282.72;5052800;28;20206;-81
2023/07/09 04:25:53;;;;;;;16.83;4.80;;;;;;;20.58;69.22;95297.56;5053065;28;20179;-81
2023/07/09 04:28:18;;;;;;;5.28;3.25;;;;;;;20.91;69.90;95309.69;5052824;28;20228;-81
2023/07/09 04:30:51;;;;;;;9.93;4.15;;;;;;;21.12;68.94;95314.00;5034762;28;20171;-81
2023/07/09 04:33:18;;;;;;;21.98;8.75;;;;;;;21.32;69.04;95313.28;5052545;28;20598;-81
2023/07/09 04:35:47;;;;;;;9.68;3.78;;;;;;;21.57;69.52;95317.84;5053022;28;20171;-81
2023/07/09 04:38:14;;;;;;;11.55;4.90;;;;;;;21.54;69.78;95287.00;5052298;28;20253;-81
2023/07/09 04:40:39;;;;;;;10.07;3.92;;;;;;;22.03;68.16;95326.69;5052597;28;20268;-82
2023/07/09 04:43:05;;;;;;;11.35;5.78;;;;;;;22.10;66.14;95313.78;5052466;28;20199;-82
2023/07/09 04:45:30;;;;;;;7.53;4.00;;;;;;;22.27;63.79;95297.38;5034712;28;20206;-82
2023/07/09 04:47:56;;;;;;;4.43;3.00;;;;;;;22.66;62.35;95335.09;5052397;28;20696;-82
2023/07/09 04:50:22;;;;;;;7.75;3.35;;;;;;;22.79;60.53;95327.28;5052260;28;20198;-82
2023/07/09 04:52:47;;;;;;;9.23;4.78;;;;;;;23.14;61.67;95320.91;5052401;28;20541;-82
2023/07/09 04:55:12;;;;;;;13.30;7.05;;;;;;;23.54;61.07;95322.56;5051956;28;20631;-82
2023/07/09 04:57:38;;;;;;;9.48;4.18;;;;;;;23.78;58.71;95295.75;5033970;28;20532;-82
2023/07/09 05:00:07;;;;;;;4.30;3.10;;;;;;;24.28;58.54;95316.00;5052078;28;20269;-82
2023/07/09 05:02:33;;;;;;;8.13;2.83;;;;;;;24.62;57.13;95310.50;5052124;28;20260;-82
2023/07/09 05:04:59;;;;;;;7.85;2.47;;;;;;;24.73;52.32;95325.47;5030943;28;20210;-82
2023/07/09 05:07:25;;;;;;;7.20;3.30;;;;;;;24.86;54.54;95310.47;5052239;28;20199;-82
2023/07/09 05:09:50;;;;;;;10.15;3.83;;;;;;;25.31;55.00;95308.28;5051682;28;20693;-82
2023/07/09 05:12:15;;;;;;;3.78;2.72;;;;;;;25.95;52.74;95342.59;5034015;28;20170;-82
2023/07/09 05:14:41;;;;;;;5.90;2.97;;;;;;;26.38;51.13;95334.34;5052022;28;20175;-82
2023/07/09 05:17:07;;;;;;;7.80;2.97;;;;;;;26.79;49.11;95345.97;5052157;28;20183;-81
2023/07/09 05:19:33;;;;;;;5.68;3.40;;;;;;;27.13;49.89;95329.34;5051964;28;20159;-83
2023/07/09 05:21:58;;;;;;;3.35;2.92;;;;;;;27.67;48.80;95328.41;5033901;28;20544;-83
2023/07/09 05:24:24;;;;;;;10.52;4.15;;;;;;;27.82;47.51;95329.94;5051742;28;20229;-82
2023/07/09 05:26:49;;;;;;;4.63;2.85;;;;;;;28.30;48.20;95345.53;5051599;28;20167;-83
2023/07/09 05:29:15;;;;;;;15.98;3.47;;;;;;;28.67;45.98;95333.44;5042843;28;20709;-83
2023/07/09 05:31:41;;;;;;;9.88;4.32;;;;;;;29.13;44.35;95327.56;5051568;28;20178;-82
2023/07/09 05:34:08;;;;;;;6.05;3.10;;;;;;;29.53;43.88;95320.91;5051702;28;20562;-82
2023/07/09 05:36:33;;;;;;;8.50;3.45;;;;;;;29.95;42.87;95345.66;5051242;28;20195;-82
2023/07/09 05:38:59;;;;;;;6.13;2.55;;;;;;;30.02;41.87;95318.81;5051436;28;20222;-81
2023/07/09 05:41:24;;;;;;;6.22;3.13;;;;;;;30.52;41.53;95327.19;5051591;28;20179;-82
2023/07/09 05:43:51;;;;;;;4.80;3.00;;;;;;;30.97;40.39;95340.25;5051545;28;20191;-82
2023/07/09 05:46:17;;;;;;;8.18;2.42;;;;;;;30.97;39.92;95340.25;5051497;28;20657;-82
2023/07/09 05:48:43;;;;;;;7.00;3.08;;;;;;;31.02;41.16;95332.72;5051648;28;20246;-82
2023/07/09 05:51:08;;;;;;;11.57;3.60;;;;;;;31.17;40.86;95352.34;5051465;28;20533;-82
2023/07/09 05:53:34;;;;;;;10.60;2.83;;;;;;;31.24;38.94;95353.41;5051576;28;20164;-83
2023/07/09 05:55:59;;;;;;;6.28;2.70;;;;;;;31.21;39.94;95340.47;5051257;28;20634;-82
2023/07/09 05:58:24;;;;;;;10.13;3.83;;;;;;;31.10;41.44;95344.69;5048212;28;20183;-80
2023/07/09 06:00:56;;;;;;;9.68;4.72;;;;;;;31.03;41.33;95331.59;5051249;28;20168;-82
2023/07/09 06:03:25;;;;;;;5.38;3.20;;;;;;;30.90;40.91;95348.94;5051890;28;20225;-82
2023/07/09 06:05:51;;;;;;;4.75;2.75;;;;;;;30.42;41.45;95346.53;5055656;28;20167;-83
2023/07/09 06:08:18;;;;;;;3.78;2.35;;;;;;;30.17;41.27;95344.69;5055448;28;20160;-82
2023/07/09 06:10:56;;;;;;;4.15;2.50;;;;;;;29.67;40.97;95334.31;5055507;28;20209;-81
2023/07/09 06:13:21;;;;;;;4.35;3.00;;;;;;;29.02;43.03;95310.78;5047443;28;20194;-83
2023/07/09 06:15:48;;;;;;;5.25;2.72;;;;;;;28.73;43.72;95329.47;5054582;28;20259;-84
2023/07/09 06:18:14;;;;;;;5.05;3.10;;;;;;;28.25;45.44;95318.59;5054930;28;20194;-80
2023/07/09 06:20:39;;;;;;;4.03;2.58;;;;;;;28.32;47.26;95327.06;5055327;28;20179;-81
2023/07/09 06:23:05;;;;;;;5.30;2.83;;;;;;;28.26;44.58;95323.72;5055320;28;20199;-82
2023/07/09 06:25:30;;;;;;;8.10;3.67;;;;;;;28.08;45.12;95311.16;5054904;28;20160;-84
2023/07/09 06:27:57;;;;;;;7.78;3.13;;;;;;;28.18;47.55;95310.13;5054523;28;20638;-81
2023/07/09 06:30:22;;;;;;;6.97;2.70;;;;;;;28.11;45.97;95324.06;5054900;28;20191;-81
2023/07/09 06:32:48;;;;;;;6.15;2.72;;;;;;;28.02;47.20;95315.88;5055073;28;20250;-83
2023/07/09 06:35:13;;;;;;;4.45;2.58;;;;;;;28.16;45.01;95323.97;5055092;28;20634;-82
2023/07/09 06:37:38;;;;;;;7.63;3.03;;;;;;;28.38;46.67;95332.03;5054615;28;20215;-81
2023/07/09 06:40:07;;;;;;;4.05;2.90;;;;;;;28.58;45.31;95322.56;5060740;28;20178;-82
2023/07/09 06:42:32;;;;;;;5.65;2.42;;;;;;;28.66;46.60;95286.56;5054723;28;20756;-82
2023/07/09 06:44:58;;;;;;;5.70;2.65;;;;;;;29.05;44.68;95315.59;5054712;28;20171;-82
2023/07/09 06:47:23;;;;;;;8.70;3.25;;;;;;;29.25;44.48;95333.16;5054693;28;20175;-82
2023/07/09 06:49:48;;;;;;;9.55;2.60;;;;;;;29.42;45.41;95326.97;5054358;28;20796;-82
2023/07/09 06:52:14;;;;;;;4.00;2.25;;;;;;;29.47;44.22;95319.47;5054533;28;20645;-82
2023/07/09 06:54:39;;;;;;;7.70;2.60;;;;;;;29.58;43.80;95328.88;5054178;28;20664;-82
2023/07/09 06:57:05;;;;;;;3.80;2.30;;;;;;;29.66;43.10;95319.16;5054524;28;20523;-82
2023/07/09 06:59:30;;;;;;;6.60;2.50;;;;;;;29.64;41.58;95326.81;5036400;28;20178;-82
2023/07/09 07:01:55;;;;;;;4.50;2.55;;;;;;;29.64;45.08;95324.91;5036045;28;20789;-82
2023/07/09 07:04:21;;;;;;;3.97;2.80;;;;;;;29.27;41.82;95311.94;5029607;28;20167;-81
2023/07/09 07:06:46;;;;;;;7.93;3.33;;;;;;;28.58;42.38;95303.59;5054154;28;20734;-81
2023/07/09 07:09:12;;;;;;;3.97;2.13;;;;;;;28.68;46.91;95314.16;5054335;28;20163;-81
2023/07/09 07:11:37;;;;;;;5.80;3.42;;;;;;;29.05;44.99;95322.91;5054174;28;20206;-81
2023/07/09 07:14:02;;;;;;;3.40;2.33;;;;;;;29.37;44.48;95306.22;5052894;28;20167;-82
2023/07/09 07:16:28;;;;;;;5.18;2.40;;;;;;;29.31;42.08;95314.81;5053883;28;20258;-81
2023/07/09 07:18:53;;;;;;;5.85;2.95;;;;;;;29.48;44.19;95318.38;5053879;28;20713;-81
2023/07/09 07:21:19;;;;;;;5.00;2.60;;;;;;;29.80;43.06;95311.63;5053857;28;20250;-81
2023/07/09 07:23:44;;;;;;;7.90;2.40;;;;;;;29.93;42.71;95309.84;5053827;28;20677;-82
2023/07/09 07:26:09;;;;;;;4.53;2.63;;;;;;;30.02;44.84;95321.53;5053879;28;20194;-82
2023/07/09 07:28:35;;;;;;;4.35;2.35;;;;;;;30.14;45.48;95327.09;5053738;28;20225;-82
2023/07/09 07:31:03;;;;;;;14.52;2.47;;;;;;;30.31;42.76;95321.63;5053613;28;20163;-82
2023/07/09 07:33:28;;;;;;;5.18;2.42;;;;;;;30.27;42.12;95293.50;5053572;28;20203;-81
2023/07/09 07:35:54;;;;;;;9.43;2.72;;;;;;;30.31;40.97;95315.41;5053572;28;20273;-80
2023/07/09 07:38:19;;;;;;;3.63;2.83;;;;;;;29.77;39.28;95281.59;5053161;28;20725;-81
2023/07/09 07:40:45;;;;;;;5.13;2.45;;;;;;;30.07;41.72;95304.28;5035389;28;20183;-81
2023/07/09 07:43:10;;;;;;;7.47;2.47;;;;;;;29.22;42.82;95296.63;5053653;28;20278;-81
2023/07/09 07:45:40;;;;;;;3.00;2.47;;;;;;;29.51;44.95;95306.84;5053608;28;20265;-81
2023/07/09 07:48:05;;;;;;;5.32;2.53;;;;;;;29.76;45.50;95285.44;5053528;28;20176;-81
2023/07/09 07:50:31;;;;;;;20.80;2.90;;;;;;;30.18;44.13;95309.06;5053437;28;20163;-81
2023/07/09 07:52:56;;;;;;;3.88;2.45;;;;;;;30.52;42.48;95300.00;5053025;28;20660;-81
2023/07/09 07:55:21;;;;;;;6.63;5.45;;;;;;;30.75;41.81;95314.94;5053229;28;20265;-81
2023/07/09 07:57:47;;;;;;;4.45;2.58;;;;;;;30.91;42.71;95315.16;5052275;28;20738;-83
2023/07/09 08:00:13;;;;;;;8.00;2.33;;;;;;;30.75;40.23;95305.97;5052974;28;20254;-81
2023/07/09 08:02:39;;;;;;;4.50;2.47;;;;;;;30.00;40.96;95285.78;5052855;28;20222;-79
2023/07/09 08:05:05;;;;;;;4.95;2.55;;;;;;;29.88;41.96;95301.88;5052233;28;20673;-80
2023/07/09 08:07:30;;;;;;;4.47;2.47;;;;;;;29.62;41.67;95288.34;5053137;28;20182;-81
2023/07/09 08:09:56;;;;;;;6.18;3.17;;;;;;;29.75;43.71;95302.88;5052695;28;20544;-80
2023/07/09 08:12:21;;;;;;;5.85;2.55;;;;;;;29.53;42.79;95285.63;5056533;28;20179;-80
2023/07/09 08:14:47;;;;;;;6.85;2.92;;;;;;;29.48;41.74;95293.16;5037349;28;20903;-80
2023/07/09 08:17:13;;;;;;;9.57;3.28;;;;;;;28.41;42.22;95274.53;5050942;28;20340;-79
2023/07/09 08:19:53;;;;;;;4.03;2.50;;;;;;;28.88;44.56;95281.09;5052620;28;20689;-80
2023/07/09 08:22:22;;;;;;;4.75;2.75;;;;;;;29.07;43.74;95278.06;5052038;28;20245;-80
2023/07/09 08:24:51;;;;;;;5.72;2.50;;;;;;;29.38;44.52;95256.28;5034515;28;20190;-80
2023/07/09 08:27:17;;;;;;;5.28;2.83;;;;;;;29.58;42.86;95273.81;5052458;28;20716;-80
2023/07/09 08:29:42;;;;;;;3.80;2.78;;;;;;;29.61;44.73;95263.09;5052130;28;20627;-81
2023/07/09 08:32:09;;;;;;;2.47;2.28;;;;;;;29.91;46.31;95283.03;5034139;28;20178;-82
2023/07/09 08:34:35;;;;;;;5.20;3.22;;;;;;;29.87;44.18;95238.63;5052375;28;20247;-81
2023/07/09 08:37:01;;;;;;;6.70;3.00;;;;;;;30.28;44.23;95284.22;5031154;28;20219;-81
2023/07/09 08:39:27;;;;;;;6.00;2.83;;;;;;;30.38;41.66;95273.00;5048769;28;20195;-80
2023/07/09 08:41:59;;;;;;;5.28;3.17;;;;;;;29.77;46.06;95263.41;5051753;28;20205;-82
2023/07/09 08:44:30;;;;;;;3.97;2.92;;;;;;;30.00;43.27;95291.19;5056701;28;20187;-83
2023/07/09 08:47:07;;;;;;;7.82;3.05;;;;;;;30.17;46.13;95283.00;5056984;28;20191;-84
2023/07/09 08:49:54;;;;;;;3.67;2.47;;;;;;;30.40;43.13;95291.72;5045231;28;20649;-85
2023/07/09 08:52:32;;;;;;;7.30;3.17;;;;;;;30.58;42.71;95293.25;5050156;28;20180;-83
2023/07/09 08:55:02;;;;;;;5.38;2.65;;;;;;;30.64;44.95;95286.50;5051831;28;20175;-83
2023/07/09 08:57:34;;;;;;;3.17;2.35;;;;;;;30.73;43.55;95291.91;5051438;28;20179;-80
2023/07/09 09:00:35;;;;;;;4.88;2.90;;;;;;;30.77;41.27;95284.69;5051889;28;20652;-82
2023/07/09 09:03:24;;;;;;;6.68;2.90;;;;;;;30.90;44.42;95297.25;5051135;28;20211;-82
2023/07/09 09:05:51;;;;;;;3.33;2.95;;;;;;;30.77;43.70;95279.25;5049786;28;20581;-83
2023/07/09 09:08:47;;;;;;;5.97;2.85;;;;;;;30.95;42.46;95290.84;5052081;28;20175;-82
2023/07/09 09:11:31;;;;;;;3.53;2.70;;;;;;;31.02;43.78;95294.63;5049361;28;20177;-82
2023/07/09 09:14:01;;;;;;;5.88;2.65;;;;;;;31.02;42.15;95278.31;5047900;28;20179;-82
2023/07/09 09:16:38;;;;;;;8.02;3.15;;;;;;;31.04;43.24;95272.53;5051735;28;20179;-82
2023/07/09 09:19:20;;;;;;;6.65;2.65;;;;;;;30.67;42.28;95280.44;5049644;28;20221;-82
2023/07/09 09:21:47;;;;;;;4.72;2.80;;;;;;;30.61;43.64;95279.03;5051464;28;20245;-81
2023/07/09 09:24:23;;;;;;;4.43;2.83;;;;;;;30.72;42.39;95290.31;5051776;28;20337;-81
2023/07/09 09:26:51;;;;;;;5.82;3.45;;;;;;;30.63;42.50;95281.41;5051446;28;20198;-81
2023/07/09 09:29:16;;;;;;;3.30;2.72;;;;;;;30.43;41.36;95292.97;5051320;28;20272;-81
2023/07/09 09:31:48;;;;;;;3.95;2.90;;;;;;;30.12;43.17;95264.16;5051410;28;20198;-81
2023/07/09 09:34:28;;;;;;;4.22;2.45;;;;;;;30.38;44.26;95293.94;5045852;28;20681;-81
2023/07/09 09:36:58;;;;;;;6.50;2.90;;;;;;;30.15;42.98;95262.72;5050187;28;20215;-81
2023/07/09 09:39:25;;;;;;;15.65;4.00;;;;;;;30.18;44.57;95249.28;5051609;28;20262;-81
2023/07/09 09:41:54;;;;;;;4.43;3.80;;;;;;;30.42;42.06;95280.50;5033610;28;20179;-82
2023/07/09 09:44:24;;;;;;;10.18;7.18;;;;;;;30.29;41.53;95271.44;5051106;28;20186;-82
2023/07/09 09:46:50;;;;;;;5.10;3.03;;;;;;;30.19;45.31;95266.34;5051799;28;20232;-81
2023/07/09 09:49:16;;;;;;;6.55;4.13;;;;;;;30.08;44.81;95256.97;5072148;28;20158;-81
2023/07/09 09:51:45;;;;;;;4.97;3.15;;;;;;;30.20;42.17;95274.19;5054109;28;20170;-81
2023/07/09 09:54:21;;;;;;;6.75;4.68;;;;;;;29.97;43.79;95253.81;5059550;28;20260;-82
2023/07/09 09:56:50;;;;;;;6.95;3.92;;;;;;;30.11;45.33;95272.63;5033111;28;20202;-83
2023/07/09 09:59:29;;;;;;;6.90;3.08;;;;;;;29.87;43.18;95267.69;5050604;28;20218;-82
2023/07/09 10:02:13;;;;;;;5.80;3.30;;;;;;;29.70;45.61;95259.59;5033166;28;20954;-82
2023/07/09 10:04:39;;;;;;;9.38;2.70;;;;;;;29.58;42.78;95262.94;5050813;28;20159;-82
2023/07/09 10:07:08;;;;;;;6.32;2.80;;;;;;;29.50;46.20;95253.69;5051092;28;20269;-81
2023/07/09 10:09:47;;;;;;;7.03;2.95;;;;;;;29.54;46.22;95259.28;5036591;28;20356;-81
2023/07/09 10:12:22;;;;;;;5.32;2.95;;;;;;;29.53;45.43;95257.69;5051083;28;20182;-81
2023/07/09 10:14:56;;;;;;;4.63;3.60;;;;;;;29.48;44.63;95261.38;5051518;28;20625;-82
2023/07/09 10:17:53;;;;;;;3.22;2.72;;;;;;;29.18;44.29;95224.31;5051080;28;20662;-81
2023/07/09 10:20:25;;;;;;;4.43;2.97;;;;;;;29.38;44.31;95260.91;5051538;28;20175;-80
2023/07/09 10:23:09;;;;;;;12.77;4.43;;;;;;;29.27;43.87;95252.25;5046907;28;20595;-81
2023/07/09 10:25:44;;;;;;;4.82;3.92;;;;;;;29.26;44.62;95254.16;5051055;28;20175;-81
2023/07/09 10:28:24;;;;;;;3.17;2.72;;;;;;;29.23;47.55;95237.75;5051083;28;20240;-80
2023/07/09 10:31:00;;;;;;;5.70;3.42;;;;;;;29.31;44.49;95252.41;5051364;28;20203;-81
2023/07/09 10:33:40;;;;;;;5.13;2.75;;;;;;;29.14;45.97;95221.47;5051510;28;20163;-83
2023/07/09 10:36:42;;;;;;;5.53;2.95;;;;;;;29.21;47.11;95248.09;5051616;28;20337;-79
2023/07/09 10:39:33;;;;;;;4.13;2.65;;;;;;;29.05;44.11;95247.78;5050573;28;20183;-84
2023/07/09 10:42:00;;;;;;;5.22;3.75;;;;;;;28.94;45.72;95237.56;5043603;28;20168;-87
2023/07/09 10:44:34;;;;;;;3.80;3.03;;;;;;;28.20;44.72;95184.09;5032819;28;20175;-89
2023/07/09 10:47:04;;;;;;;5.63;3.10;;;;;;;28.50;45.80;95245.56;5049620;28;20163;-89
2023/07/09 10:49:37;;;;;;;4.32;3.20;;;;;;;28.23;42.52;95207.06;5053199;28;20194;-85
2023/07/09 10:52:11;;;;;;;5.25;2.70;;;;;;;28.38;44.24;95239.13;5052261;28;20167;-83
2023/07/09 10:55:05;;;;;;;3.65;2.72;;;;;;;28.26;46.34;95215.38;5054279;28;20662;-87
2023/07/09 10:57:48;;;;;;;3.58;3.00;;;;;;;28.43;44.24;95237.09;5052912;28;20172;-86
2023/07/09 11:00:32;;;;;;;14.60;6.47;;;;;;;28.43;44.41;95241.72;5052577;28;20197;-83
2023/07/09 11:03:12;;;;;;;4.03;3.08;;;;;;;28.21;43.87;95212.00;5030690;28;20195;-82
2023/07/09 11:05:39;;;;;;;6.43;2.80;;;;;;;28.39;44.25;95228.00;5051662;28;20170;-82
2023/07/09 11:08:17;;;;;;;5.93;2.55;;;;;;;28.32;44.48;95219.53;5059081;28;20181;-83
2023/07/09 11:11:04;;;;;;;4.00;2.83;;;;;;;28.45;44.11;95231.38;5060670;28;20171;-83
2023/07/09 11:13:41;;;;;;;5.22;2.65;;;;;;;28.47;43.86;95238.06;5053697;28;20667;-83
2023/07/09 11:16:12;;;;;;;4.30;2.60;;;;;;;28.46;44.16;95225.63;5053896;28;20174;-84
2023/07/09 11:18:37;;;;;;;4.88;2.55;;;;;;;28.32;44.48;95219.53;5056002;28;20167;-83
2023/07/09 11:21:22;;;;;;;6.07;2.58;;;;;;;28.39;45.75;95227.19;5053425;28;20660;-83
2023/07/09 11:23:51;;;;;;;3.22;2.60;;;;;;;28.46;45.13;95244.59;5053298;28;20278;-83
2023/07/09 11:26:30;;;;;;;5.00;2.88;;;;;;;28.47;46.17;95237.25;5044882;28;20190;-82
2023/07/09 11:29:01;;;;;;;7.00;2.63;;;;;;;28.55;46.76;95233.78;5053493;28;20173;-83
2023/07/09 11:31:30;;;;;;;4.68;2.75;;;;;;;28.66;46.79;95232.38;5053306;28;20788;-83
2023/07/09 11:34:19;;;;;;;2.63;2.40;;;;;;;28.57;45.22;95209.06;5055199;28;20174;-83
2023/07/09 11:37:00;;;;;;;6.25;2.42;;;;;;;28.75;47.39;95233.19;5045970;28;20178;-84
2023/07/09 11:39:42;;;;;;;7.60;2.70;;;;;;;28.74;45.76;95223.44;5048950;28;20174;-83